Bookmark and Share
Track history (hours):
 

Eira

Last reported at 2014-Apr-13 14:20 UTC. Time now 2014-Apr-20 08:52 UTC.
Position N 59°39' E 021°17'.

Length 157 m; draft 6.3 m.

Type: Cargo ship. MMSI: 230935000.

NotesDate/timePositionNaut miles runAvg speedWind from/ knotsBaromVisibWave heightAir tempDewpointWater temp
2014-Apr-13 14:20N 59°39' E 021°17'911.5
2014-Apr-13 13:33N 59°48' E 021°21'7 0.2
2014-Apr-12 10:04N 59°53' E 021°30'611.7
2014-Apr-12 09:33N 59°49' E 021°21'1111.1
2014-Apr-12 08:34N 59°38' E 021°26'5711.2
2014-Apr-12 03:25N 59°40' E 023°20'1011.7
2014-Apr-12 02:33N 59°42' E 023°39'1311.7
2014-Apr-12 01:27N 59°45' E 024°04'1111.8
2014-Apr-12 00:31N 59°47' E 024°26'7011.8
2014-Apr-11 18:32N 60°01' E 026°44'2 0.0
2014-Apr-10 00:13N 59°59' E 026°41'5510.9
2014-Apr-09 19:07N 59°47' E 024°53'610.7
2014-Apr-09 18:33N 59°46' E 024°41'1110.9
2014-Apr-09 17:34N 59°44' E 024°20'1110.9
2014-Apr-09 16:30N 59°42' E 023°58'1010.9
2014-Apr-09 15:33N 59°41' E 023°37'1210.5
2014-Apr-09 14:24N 59°39' E 023°14'4010.4
2014-Apr-09 10:31N 59°34' E 021°54'10 9.9
2014-Apr-09 09:34N 59°35' E 021°36'1010.1
2014-Apr-09 08:34N 59°42' E 021°21'1110.5
2014-Apr-09 07:33N 59°52' E 021°28'1 0.0
2014-Apr-08 02:07N 59°52' E 021°30'610.7
2014-Apr-08 01:34N 59°49' E 021°20'1111.1
2014-Apr-08 00:34N 59°38' E 021°27'6011.7
2014-Apr-07 19:26N 59°41' E 023°26'3812.6
2014-Apr-07 16:26N 59°49' E 024°38'4212.5
2014-Apr-07 13:05N 59°57' E 026°00'1912.2
2014-Apr-07 11:33N 60°01' E 026°37'2 0.0
2014-Apr-05 19:24N 59°59' E 026°37'5312.9
2014-Apr-05 15:19N 59°49' E 024°53'1013.2
2014-Apr-05 14:34N 59°50' E 024°34'1212.3
2014-Apr-05 13:33N 59°51' E 024°09'8 8.2
2014-Apr-05 12:31N 59°59' E 024°02'4 3.8
2014-Apr-05 11:32N 60°01' E 023°55'0 0.0
2014-Apr-05 10:20N 60°01' E 023°55'0 0.0
2014-Apr-05 09:20N 60°01' E 023°55'0 0.0
2014-Apr-05 08:20N 60°01' E 023°55'0 0.0
2014-Apr-05 07:26N 60°01' E 023°55'0 0.0
2014-Apr-05 06:26N 60°01' E 023°55'0 0.0
2014-Apr-05 03:32N 60°01' E 023°55'0 0.0
2014-Apr-05 01:32N 60°01' E 023°55'0 0.0
2014-Apr-05 00:32N 60°01' E 023°55'0 0.0
2014-Apr-04 23:20N 60°01' E 023°55'0 0.0
2014-Apr-04 22:32N 60°01' E 023°55'0 0.0
2014-Apr-04 19:26N 60°01' E 023°55'0 0.0
2014-Apr-04 18:26N 60°01' E 023°55'0 0.0
2014-Apr-04 17:26N 60°01' E 023°55'0 0.0
2014-Apr-04 16:26N 60°01' E 023°55'0 0.0
2014-Apr-04 15:26N 60°01' E 023°55'0 0.0
2014-Apr-04 14:14N 60°01' E 023°55'0 0.0
2014-Apr-04 13:32N 60°01' E 023°55'0 0.0
2014-Apr-04 12:32N 60°01' E 023°55'0 0.0
2014-Apr-04 11:32N 60°01' E 023°55'0 0.0
2014-Apr-04 10:17N 60°01' E 023°55'0 0.0
2014-Apr-04 09:20N 60°01' E 023°55'0 0.0
2014-Apr-04 08:32N 60°01' E 023°55'0 0.0
2014-Apr-04 07:32N 60°01' E 023°55'0 0.0
2014-Apr-04 06:20N 60°01' E 023°55'0 0.0
2014-Apr-04 05:20N 60°01' E 023°55'0 0.0
2014-Apr-04 04:08N 60°01' E 023°55'0 0.0
2014-Apr-04 03:12N 60°01' E 023°55'9 4.9
2014-Apr-04 01:21N 59°56' E 024°10'7410.7
2014-Apr-03 18:25N 60°01' E 026°37'  

Dump ship's entire track history

sailing weather and tide predictions

Eira — OJJP — position and weather